Time;durP1;ratioP1;P1;durP2;ratioP2;P2;SDS_P1;SDS_P2;PMS_P1;PMS_P2;Temp;Humidity;BMP_temperature;BMP_pressure;BME280_temperature;BME280_humidity;BME280_pressure;Samples;Min_cycle;Max_cycle;Signal;HPM_P1;HPM_P2
2020/12/04 00:00:53;;;;;;;165.50;66.82;;;;;;;-3.38;84.53;99204.79;1728912;81;21186;-73
2020/12/04 00:03:19;;;;;;;175.97;70.67;;;;;;;-3.31;84.54;99211.22;1726815;81;21598;-73
2020/12/04 00:05:46;;;;;;;162.20;64.45;;;;;;;-3.21;84.54;99221.33;1745670;81;21143;-73
2020/12/04 00:08:12;;;;;;;181.65;73.97;;;;;;;-3.12;84.53;99206.30;1762450;81;21165;-73
2020/12/04 00:10:38;;;;;;;193.02;78.65;;;;;;;-3.07;84.52;99206.34;1753923;80;21171;-73
2020/12/04 00:13:04;;;;;;;168.85;70.37;;;;;;;-2.97;84.53;99210.39;1727556;81;21139;-73
2020/12/04 00:15:31;;;;;;;173.17;72.25;;;;;;;-2.97;84.53;99211.69;1729402;83;21651;-73
2020/12/04 00:17:57;;;;;;;161.92;66.70;;;;;;;-2.95;84.54;99207.18;1729705;82;21155;-73
2020/12/04 00:20:24;;;;;;;194.43;76.57;;;;;;;-2.89;84.51;99210.66;1729330;83;21327;-73
2020/12/04 00:22:50;;;;;;;203.05;78.22;;;;;;;-2.82;84.51;99210.55;1757010;81;21268;-73
2020/12/04 00:25:17;;;;;;;203.15;78.25;;;;;;;-2.76;84.51;99198.34;1753083;81;21195;-73
2020/12/04 00:27:43;;;;;;;194.45;78.02;;;;;;;-2.69;84.48;99198.24;1729455;81;21286;-73
2020/12/04 00:30:10;;;;;;;175.90;72.08;;;;;;;-2.69;84.51;99193.02;1752219;81;21154;-73
2020/12/04 00:32:36;;;;;;;175.75;71.02;;;;;;;-2.65;84.50;99185.80;1753721;81;21165;-73
2020/12/04 00:35:02;;;;;;;157.03;63.78;;;;;;;-2.56;84.51;99189.83;1734374;81;21190;-74
2020/12/04 00:37:29;;;;;;;171.62;69.27;;;;;;;-2.48;84.48;99184.50;1759587;81;21198;-73
2020/12/04 00:39:55;;;;;;;161.75;65.12;;;;;;;-2.42;84.49;99184.02;1755059;81;21167;-74
2020/12/04 00:42:21;;;;;;;157.12;64.72;;;;;;;-2.37;84.49;99174.91;1758951;81;21144;-74
2020/12/04 00:44:47;;;;;;;170.75;70.25;;;;;;;-2.32;84.47;99174.05;1759383;81;21179;-74
2020/12/04 00:47:13;;;;;;;152.60;67.37;;;;;;;-2.25;84.47;99170.52;1757702;81;21141;-73
2020/12/04 00:49:40;;;;;;;159.97;69.10;;;;;;;-2.22;84.44;99170.27;1742746;81;21167;-74
2020/12/04 00:52:06;;;;;;;162.00;67.60;;;;;;;-2.18;84.46;99165.17;1730832;81;21171;-74
2020/12/04 00:54:32;;;;;;;166.10;71.40;;;;;;;-2.09;84.44;99157.91;1729742;81;21167;-73
2020/12/04 00:56:59;;;;;;;183.45;72.78;;;;;;;-2.01;84.42;99156.84;1756447;81;21171;-74
2020/12/04 00:59:25;;;;;;;172.20;70.92;;;;;;;-1.98;84.46;99150.53;1759363;81;21254;-74
2020/12/04 01:01:51;;;;;;;170.43;69.70;;;;;;;-1.98;84.45;99148.76;1739121;81;21951;-74
2020/12/04 01:04:17;;;;;;;152.75;65.28;;;;;;;-1.92;84.46;99150.03;1729525;81;21632;-74
2020/12/04 01:06:45;;;;;;;163.20;68.25;;;;;;;-1.89;84.44;99157.16;1729487;82;21620;-74
2020/12/04 01:09:11;;;;;;;142.53;63.13;;;;;;;-1.81;84.45;99151.32;1729797;82;21235;-73
2020/12/04 01:11:37;;;;;;;156.07;67.55;;;;;;;-1.79;84.45;99150.23;1732367;81;21194;-74
2020/12/04 01:14:04;;;;;;;165.28;68.75;;;;;;;-1.77;84.45;99140.52;1750085;81;21171;-73
2020/12/04 01:16:30;;;;;;;158.18;70.05;;;;;;;-1.72;84.47;99141.42;1761934;81;21182;-73
2020/12/04 01:18:56;;;;;;;163.57;68.33;;;;;;;-1.64;84.47;99143.79;1748851;81;21171;-74
2020/12/04 01:21:22;;;;;;;156.22;67.12;;;;;;;-1.58;84.46;99128.08;1747063;81;21139;-74
2020/12/04 01:23:51;;;;;;;148.53;62.83;;;;;;;-1.57;84.49;99121.43;1735577;81;21202;-74
2020/12/04 01:26:19;;;;;;;103.90;45.65;;;;;;;-1.54;84.47;99115.11;1738888;80;21587;-74
2020/12/04 01:28:45;;;;;;;106.67;43.50;;;;;;;-1.46;84.50;99109.27;1762594;81;21128;-74
2020/12/04 01:31:11;;;;;;;128.42;48.70;;;;;;;-1.32;84.47;99111.57;1762316;81;21154;-74
2020/12/04 01:33:37;;;;;;;117.35;47.80;;;;;;;-1.10;84.49;99104.92;1762669;81;21198;-74
2020/12/04 01:36:04;;;;;;;114.52;47.20;;;;;;;-0.88;84.48;99109.98;1759162;81;22089;-74
2020/12/04 01:38:30;;;;;;;87.05;37.60;;;;;;;-0.66;84.48;99111.61;1761389;81;21175;-74
2020/12/04 01:40:59;;;;;;;80.25;36.88;;;;;;;-0.51;84.48;99107.70;1760407;81;21131;-74
2020/12/04 01:43:25;;;;;;;93.27;37.55;;;;;;;-0.36;84.51;99093.77;1738837;81;21103;-74
2020/12/04 01:45:51;;;;;;;89.52;37.38;;;;;;;-0.25;84.53;99096.28;1760587;81;21158;-74
2020/12/04 01:48:17;;;;;;;85.87;36.95;;;;;;;-0.16;84.56;99099.40;1756916;81;21205;-74
2020/12/04 01:50:44;;;;;;;78.60;38.10;;;;;;;-0.08;84.59;99090.40;1732378;81;21155;-74
2020/12/04 01:53:10;;;;;;;91.40;40.95;;;;;;;0.01;84.62;99090.88;1745404;81;21115;-74
2020/12/04 01:55:36;;;;;;;89.40;39.73;;;;;;;0.06;84.63;99083.94;1751013;81;21194;-74
2020/12/04 01:58:03;;;;;;;82.33;37.95;;;;;;;0.09;84.67;99084.49;1754717;81;21151;-74
2020/12/04 02:00:30;;;;;;;82.00;34.90;;;;;;;0.14;84.71;99074.41;1759937;80;22190;-74
2020/12/04 02:02:56;;;;;;;75.30;33.33;;;;;;;0.17;84.71;99061.53;1732354;81;21206;-74
2020/12/04 02:05:22;;;;;;;86.25;38.08;;;;;;;0.21;84.74;99049.30;1732684;81;21159;-74
2020/12/04 02:08:03;;;;;;;77.58;32.90;;;;;;;0.25;84.75;99050.69;1734304;81;21131;-74
2020/12/04 02:10:32;;;;;;;79.47;33.98;;;;;;;0.24;84.79;99046.44;1732695;81;21595;-74
2020/12/04 02:12:58;;;;;;;80.15;37.13;;;;;;;0.24;84.80;99045.12;1733563;81;21222;-73
2020/12/04 02:15:25;;;;;;;85.53;39.03;;;;;;;0.26;84.83;99043.66;1732860;81;21163;-74
2020/12/04 02:17:55;;;;;;;77.08;37.30;;;;;;;0.27;84.84;99033.05;1709633;82;21195;-74
2020/12/04 02:20:22;;;;;;;84.35;36.70;;;;;;;0.28;84.85;99026.81;1734386;81;21198;-74
2020/12/04 02:22:48;;;;;;;75.70;34.73;;;;;;;0.30;84.88;99019.66;1751601;81;21155;-73
2020/12/04 02:25:14;;;;;;;76.75;35.33;;;;;;;0.34;84.90;99015.80;1762047;81;21128;-74
2020/12/04 02:27:47;;;;;;;70.00;31.82;;;;;;;0.37;84.89;99018.14;1761716;81;21189;-74
2020/12/04 02:30:27;;;;;;;65.52;32.95;;;;;;;0.41;84.91;99013.44;1760045;81;21668;-74
2020/12/04 02:32:54;;;;;;;70.65;31.25;;;;;;;0.43;84.89;99012.33;1729904;81;21131;-74
2020/12/04 02:35:20;;;;;;;77.80;34.75;;;;;;;0.44;84.94;99015.30;1762153;81;21140;-74
2020/12/04 02:37:46;;;;;;;78.55;34.48;;;;;;;0.47;84.96;99021.57;1760028;81;21155;-74
2020/12/04 02:40:13;;;;;;;72.90;35.13;;;;;;;0.51;84.96;99006.38;1762031;81;21131;-74
2020/12/04 02:42:42;;;;;;;79.35;36.55;;;;;;;0.54;84.98;98994.78;1762245;81;21123;-74
2020/12/04 02:45:09;;;;;;;59.45;27.05;;;;;;;0.56;84.98;98984.98;1736395;81;21510;-73
2020/12/04 02:47:35;;;;;;;70.47;33.95;;;;;;;0.56;84.98;98971.87;1734362;81;21163;-74
2020/12/04 02:50:03;;;;;;;71.40;32.85;;;;;;;0.54;84.99;98959.38;1735754;81;22164;-73
2020/12/04 02:52:29;;;;;;;68.72;29.63;;;;;;;0.54;84.99;98960.68;1744765;81;21180;-74
2020/12/04 02:54:55;;;;;;;68.95;33.25;;;;;;;0.54;85.00;98963.30;1732330;81;21140;-74
2020/12/04 02:57:21;;;;;;;60.73;30.62;;;;;;;0.58;85.00;98955.50;1734126;81;21140;-74
2020/12/04 02:59:48;;;;;;;67.62;32.42;;;;;;;0.59;85.00;98957.16;1732669;81;21215;-74
2020/12/04 03:02:14;;;;;;;66.95;32.60;;;;;;;0.61;85.00;98953.90;1734133;81;21244;-74
2020/12/04 03:04:43;;;;;;;75.10;34.48;;;;;;;0.66;85.03;98946.45;1732175;82;21457;-74
2020/12/04 03:07:11;;;;;;;55.17;27.75;;;;;;;0.67;85.03;98942.86;1733028;81;21160;-74
2020/12/04 03:09:37;;;;;;;66.55;32.63;;;;;;;0.67;85.04;98938.92;1730838;81;21170;-74
2020/12/04 03:12:03;;;;;;;64.87;30.82;;;;;;;0.68;85.04;98931.38;1708700;82;21154;-74
2020/12/04 03:14:30;;;;;;;65.75;31.15;;;;;;;0.73;85.05;98928.69;1717404;83;22078;-74
2020/12/04 03:16:56;;;;;;;67.15;31.55;;;;;;;0.76;85.02;98923.63;1729504;83;21156;-74
2020/12/04 03:19:22;;;;;;;62.23;28.57;;;;;;;0.79;85.05;98924.64;1737546;82;21751;-74
2020/12/04 03:21:48;;;;;;;75.65;34.40;;;;;;;0.82;85.05;98923.03;1735802;82;21662;-74
2020/12/04 03:24:15;;;;;;;71.77;32.85;;;;;;;0.84;85.05;98898.81;1727123;82;21130;-74
2020/12/04 03:26:41;;;;;;;59.10;30.62;;;;;;;0.89;85.06;98907.05;1708428;82;21269;-74
2020/12/04 03:29:07;;;;;;;65.12;32.70;;;;;;;0.91;85.09;98916.94;1710199;82;21193;-74
2020/12/04 03:31:34;;;;;;;64.35;33.10;;;;;;;0.95;85.08;98906.50;1710255;82;21118;-75
2020/12/04 03:34:00;;;;;;;66.12;30.80;;;;;;;0.96;85.10;98895.83;1725099;82;21169;-75
2020/12/04 03:36:26;;;;;;;62.08;29.42;;;;;;;0.99;85.11;98891.59;1710434;82;21154;-74
2020/12/04 03:38:52;;;;;;;69.65;32.45;;;;;;;1.03;85.14;98891.30;1723050;83;21174;-74
2020/12/04 03:41:19;;;;;;;68.30;35.15;;;;;;;1.05;85.14;98884.95;1722744;82;21159;-74
2020/12/04 03:43:45;;;;;;;74.67;35.52;;;;;;;1.07;85.14;98883.00;1722949;83;21170;-74
2020/12/04 03:46:11;;;;;;;71.70;35.95;;;;;;;1.12;85.15;98867.64;1722964;83;21158;-74
2020/12/04 03:48:38;;;;;;;64.05;31.50;;;;;;;1.13;85.16;98878.95;1722994;82;21186;-74
2020/12/04 03:51:05;;;;;;;63.15;27.20;;;;;;;1.12;85.16;98871.58;1722895;82;21639;-74
2020/12/04 03:53:31;;;;;;;65.65;29.85;;;;;;;1.16;85.21;98849.28;1732553;82;21183;-74
2020/12/04 03:55:58;;;;;;;62.27;30.97;;;;;;;1.20;85.18;98848.02;1730437;82;21188;-75
2020/12/04 03:58:24;;;;;;;72.67;32.60;;;;;;;1.22;85.20;98852.66;1714529;82;21615;-74
2020/12/04 04:00:50;;;;;;;63.98;30.23;;;;;;;1.24;85.21;98838.88;1703543;82;21632;-75
2020/12/04 04:03:17;;;;;;;69.55;32.95;;;;;;;1.27;85.23;98839.89;1703499;82;21615;-75
2020/12/04 04:05:43;;;;;;;59.55;30.32;;;;;;;1.28;85.25;98837.61;1703427;82;21187;-75
2020/12/04 04:08:09;;;;;;;58.17;29.27;;;;;;;1.30;85.24;98836.95;1705298;82;21182;-74
2020/12/04 04:10:36;;;;;;;60.08;28.95;;;;;;;1.32;85.24;98837.65;1703622;83;21154;-74
2020/12/04 04:13:02;;;;;;;58.48;28.60;;;;;;;1.33;85.27;98845.88;1706569;82;21166;-74
2020/12/04 04:15:28;;;;;;;61.40;27.00;;;;;;;1.32;85.25;98845.53;1705842;82;22074;-74
2020/12/04 04:17:55;;;;;;;76.47;34.83;;;;;;;1.32;85.29;98840.28;1704351;82;21590;-74
2020/12/04 04:20:21;;;;;;;64.00;33.50;;;;;;;1.34;85.29;98838.31;1703922;82;21193;-73
2020/12/04 04:22:48;;;;;;;73.45;34.48;;;;;;;1.34;85.30;98843.56;1704109;82;21221;-74
2020/12/04 04:25:15;;;;;;;64.35;32.53;;;;;;;1.33;85.30;98839.31;1704336;82;21166;-74
2020/12/04 04:27:42;;;;;;;59.65;30.17;;;;;;;1.33;85.31;98844.56;1705872;82;21202;-73
2020/12/04 04:30:09;;;;;;;61.83;32.93;;;;;;;1.35;85.31;98837.34;1726269;82;21214;-74
2020/12/04 04:32:35;;;;;;;75.72;35.60;;;;;;;1.38;85.31;98838.84;1720232;82;21144;-74
2020/12/04 04:35:04;;;;;;;67.17;31.40;;;;;;;1.38;85.30;98829.16;1706234;82;21196;-74
2020/12/04 04:37:30;;;;;;;76.47;37.38;;;;;;;1.39;85.33;98830.83;1716798;82;21572;-73
2020/12/04 04:39:56;;;;;;;68.42;32.85;;;;;;;1.41;85.34;98834.11;1732649;82;21191;-74
2020/12/04 04:42:23;;;;;;;66.72;33.08;;;;;;;1.41;85.34;98826.72;1704119;82;21190;-73
2020/12/04 04:44:50;;;;;;;65.20;34.18;;;;;;;1.44;85.33;98821.19;1724058;82;21132;-74
2020/12/04 04:47:19;;;;;;;66.53;31.87;;;;;;;1.43;85.34;98826.09;1712277;82;21206;-74
2020/12/04 04:49:51;;;;;;;58.40;28.62;;;;;;;1.45;85.35;98824.12;1704084;82;21169;-74
2020/12/04 04:52:18;;;;;;;56.98;27.35;;;;;;;1.45;85.35;98827.59;1706116;82;21215;-74
2020/12/04 04:54:46;;;;;;;58.63;28.62;;;;;;;1.48;85.34;98829.91;1704095;82;21159;-74
2020/12/04 04:57:13;;;;;;;65.00;31.60;;;;;;;1.48;85.35;98827.28;1715968;82;21186;-74
2020/12/04 04:59:42;;;;;;;59.65;31.23;;;;;;;1.49;85.35;98832.88;1733060;82;21167;-74
2020/12/04 05:02:12;;;;;;;63.52;32.38;;;;;;;1.50;85.36;98843.73;1730112;82;21163;-75
2020/12/04 05:04:51;;;;;;;64.95;34.50;;;;;;;1.48;85.36;98835.16;1732956;82;21254;-75
2020/12/04 05:07:26;;;;;;;62.60;30.62;;;;;;;1.47;85.35;98840.58;1732946;82;21636;-75
2020/12/04 05:09:54;;;;;;;61.77;29.40;;;;;;;1.48;85.36;98838.27;1712830;82;21656;-74
2020/12/04 05:12:20;;;;;;;54.77;27.07;;;;;;;1.48;85.35;98835.16;1720063;82;21735;-74
2020/12/04 05:14:46;;;;;;;57.93;29.45;;;;;;;1.48;85.36;98829.91;1702002;83;21169;-74
2020/12/04 05:17:13;;;;;;;58.08;29.23;;;;;;;1.49;85.35;98831.56;1703843;83;21196;-74
2020/12/04 05:19:42;;;;;;;65.90;30.52;;;;;;;1.54;85.35;98825.04;1718118;83;21180;-75
2020/12/04 05:22:13;;;;;;;58.28;23.25;;;;;;;1.55;85.35;98835.89;1710207;82;21654;-75
2020/12/04 05:24:40;;;;;;;68.35;32.38;;;;;;;1.57;85.36;98831.30;1692076;84;21178;-74
2020/12/04 05:27:28;;;;;;;79.90;33.95;;;;;;;1.57;85.35;98829.50;1692856;83;21683;-75
2020/12/04 05:29:58;;;;;;;67.95;33.63;;;;;;;1.58;85.35;98827.70;1692329;83;21207;-74
2020/12/04 05:32:25;;;;;;;;;;;;;;;1.58;85.36;98826.39;1678288;84;21239;-74
2020/12/04 05:34:52;;;;;;;64.25;28.73;;;;;;;1.56;85.33;98820.45;1694233;83;20540;-74
2020/12/04 05:37:19;;;;;;;70.57;34.27;;;;;;;1.55;85.33;98829.33;1697217;83;21748;-73
2020/12/04 05:39:49;;;;;;;55.45;28.32;;;;;;;1.55;85.33;98828.02;1724598;81;21184;-74
2020/12/04 05:42:35;;;;;;;95.65;38.13;;;;;;;1.55;85.32;98828.02;1729507;82;21215;-74
2020/12/04 05:45:02;;;;;;;76.35;31.15;;;;;;;1.55;85.32;98822.24;1718826;83;21226;-74
2020/12/04 05:47:41;;;;;;;64.72;29.32;;;;;;;1.58;85.29;98819.83;1740993;81;21618;-73
2020/12/04 05:50:09;;;;;;;65.08;31.12;;;;;;;1.59;85.30;98814.88;1723712;83;21625;-74
2020/12/04 05:52:36;;;;;;;67.75;32.03;;;;;;;1.60;85.30;98820.00;1735370;81;21171;-75
2020/12/04 05:55:08;;;;;;;55.70;29.40;;;;;;;1.60;85.30;98811.29;1739495;81;21254;-74
2020/12/04 05:57:54;;;;;;;68.90;31.80;;;;;;;1.61;85.30;98812.95;1701868;83;21187;-75
2020/12/04 06:00:21;;;;;;;65.85;29.60;;;;;;;1.65;85.29;98809.05;1708180;82;21136;-75
2020/12/04 06:02:58;;;;;;;59.45;29.15;;;;;;;1.68;85.27;98814.81;1703596;84;21202;-75
2020/12/04 06:05:28;;;;;;;56.90;28.25;;;;;;;1.71;85.26;98825.50;1703340;82;21754;-75
2020/12/04 06:08:02;;;;;;;57.98;25.85;;;;;;;1.74;85.24;98833.08;1707318;82;21211;-75
2020/12/04 06:10:30;;;;;;;61.00;27.50;;;;;;;1.77;85.24;98836.71;1719643;82;21212;-74
2020/12/04 06:12:56;;;;;;;57.27;29.25;;;;;;;1.79;85.23;98834.77;1711795;83;21158;-75
2020/12/04 06:15:25;;;;;;;59.98;27.10;;;;;;;1.81;85.23;98837.57;1709914;83;21568;-75
2020/12/04 06:17:52;;;;;;;64.10;31.57;;;;;;;1.84;85.20;98832.49;1711274;83;21123;-75
2020/12/04 06:20:21;;;;;;;162.65;81.80;;;;;;;1.87;85.21;98829.55;1684585;83;21207;-75
2020/12/04 06:23:09;;;;;;;79.65;42.90;;;;;;;1.89;85.18;98832.88;1710675;83;21639;-75
2020/12/04 06:25:56;;;;;;;173.75;84.95;;;;;;;1.92;85.19;98848.33;1708068;83;21127;-75
2020/12/04 06:28:32;;;;;;;295.80;124.58;;;;;;;1.95;85.16;98849.33;1710937;82;21221;-75
2020/12/04 06:31:13;;;;;;;273.62;122.22;;;;;;;2.01;85.16;98851.34;1710852;83;21147;-75
2020/12/04 06:33:48;;;;;;;157.57;77.87;;;;;;;2.05;85.16;98846.11;1711153;83;21156;-75
2020/12/04 06:36:33;;;;;;;153.32;80.30;;;;;;;2.10;85.15;98845.17;1711202;83;21180;-75
2020/12/04 06:39:00;;;;;;;125.60;65.92;;;;;;;2.14;85.12;98852.27;1681045;84;21195;-75
2020/12/04 06:41:44;;;;;;;166.77;95.00;;;;;;;2.16;85.12;98856.38;1684083;83;21227;-75
2020/12/04 06:44:21;;;;;;;99.67;56.55;;;;;;;2.16;85.10;98864.27;1722871;83;21137;-75
2020/12/04 06:46:56;;;;;;;226.80;124.65;;;;;;;2.19;85.10;98867.07;1722958;83;21207;-74
2020/12/04 06:49:37;;;;;;;137.95;70.95;;;;;;;2.19;85.08;98862.64;1723059;81;21749;-75
2020/12/04 06:52:12;;;;;;;59.67;29.72;;;;;;;2.22;85.04;98859.70;1722748;83;21149;-76
2020/12/04 06:54:44;;;;;;;54.18;27.35;;;;;;;2.23;85.04;98861.36;1721639;82;21165;-75
2020/12/04 06:57:10;;;;;;;84.92;40.30;;;;;;;2.26;85.01;98857.09;1723686;83;21141;-75
2020/12/04 06:59:39;;;;;;;126.00;54.35;;;;;;;2.32;85.02;98866.19;1723606;82;22078;-75
2020/12/04 07:02:16;;;;;;;66.97;31.52;;;;;;;2.31;84.98;98862.73;1723801;82;21098;-75
2020/12/04 07:04:47;;;;;;;118.67;48.17;;;;;;;2.32;85.00;98861.73;1723271;83;21146;-80
2020/12/04 07:07:24;;;;;;;75.50;34.95;;;;;;;2.33;84.97;98862.07;1723518;83;21130;-76
2020/12/04 07:10:01;;;;;;;136.03;50.00;;;;;;;2.34;84.95;98861.10;1711366;83;21176;-76
2020/12/04 07:12:30;;;;;;;106.05;41.10;;;;;;;2.35;84.94;98857.98;1692464;82;21197;-76
2020/12/04 07:14:58;;;;;;;142.82;51.23;;;;;;;2.35;84.91;98852.73;1705553;83;21171;-76
2020/12/04 07:17:27;;;;;;;91.40;38.48;;;;;;;2.35;84.88;98848.30;1717984;82;21570;-76
2020/12/04 07:19:54;;;;;;;80.77;35.20;;;;;;;2.37;84.87;98852.06;1709908;83;21194;-76
2020/12/04 07:22:23;;;;;;;70.32;32.03;;;;;;;2.38;84.86;98850.61;1700032;84;21190;-75
2020/12/04 07:24:50;;;;;;;225.68;76.22;;;;;;;2.39;84.87;98856.19;1702072;83;21968;-76
2020/12/04 07:27:19;;;;;;;132.35;52.25;;;;;;;2.40;84.85;98858.33;1691043;84;21184;-75
2020/12/04 07:29:45;;;;;;;212.68;84.13;;;;;;;2.39;84.85;98852.23;1695518;83;21135;-76
2020/12/04 07:32:12;;;;;;;243.90;92.97;;;;;;;2.37;84.82;98830.53;1695507;84;21151;-76
2020/12/04 07:34:38;;;;;;;277.27;102.55;;;;;;;2.33;84.80;98831.00;1695533;83;21114;-76
2020/12/04 07:37:06;;;;;;;194.50;71.90;;;;;;;2.29;84.77;98822.59;1695701;83;21219;-76
2020/12/04 07:39:38;;;;;;;167.37;60.67;;;;;;;2.24;84.74;98813.05;1695492;84;21151;-76
2020/12/04 07:42:06;;;;;;;136.80;52.65;;;;;;;2.21;84.74;98817.31;1695432;83;21178;-76
2020/12/04 07:44:40;;;;;;;110.78;49.88;;;;;;;2.22;84.71;98813.67;1695599;84;21495;-76
2020/12/04 07:47:13;;;;;;;207.55;64.07;;;;;;;2.22;84.70;98811.05;1695617;83;21620;-76
2020/12/04 07:49:45;;;;;;;309.18;92.10;;;;;;;2.22;84.68;98811.05;1695810;84;22131;-77
2020/12/04 07:52:25;;;;;;;272.95;76.30;;;;;;;2.24;84.67;98805.64;1694027;83;21146;-76
2020/12/04 07:55:04;;;;;;;436.25;120.50;;;;;;;2.22;84.64;98813.67;1695694;83;21179;-76
2020/12/04 07:58:02;;;;;;;292.07;88.75;;;;;;;2.29;84.62;98796.30;1815896;77;22749;-77
2020/12/04 08:00:35;;;;;;;151.25;51.35;;;;;;;2.25;84.58;98805.47;1788506;80;21068;-77
2020/12/04 08:03:12;;;;;;;92.15;37.65;;;;;;;2.30;84.56;98800.58;1788294;80;21218;-76
2020/12/04 08:05:39;;;;;;;105.78;43.63;;;;;;;2.34;84.56;98810.30;1788243;80;21609;-76
2020/12/04 08:08:06;;;;;;;119.60;49.45;;;;;;;2.39;84.52;98813.30;1788211;80;21124;-76
2020/12/04 08:10:32;;;;;;;62.73;30.97;;;;;;;2.42;84.53;98817.75;1788370;80;20969;-76
2020/12/04 08:12:58;;;;;;;132.60;51.80;;;;;;;2.45;84.52;98825.33;1788411;80;20922;-76
2020/12/04 08:15:25;;;;;;;63.25;33.98;;;;;;;2.49;84.51;98834.56;1788217;80;22036;-76
2020/12/04 08:18:04;;;;;;;62.80;29.75;;;;;;;2.55;84.48;98842.78;1770197;80;21588;-76
2020/12/04 08:20:31;;;;;;;63.73;32.70;;;;;;;2.61;84.49;98845.61;1757150;81;21114;-77
2020/12/04 08:22:57;;;;;;;144.05;53.48;;;;;;;2.72;84.47;98844.50;1757026;81;21175;-77
2020/12/04 08:25:25;;;;;;;79.97;35.83;;;;;;;2.80;84.45;98832.70;1757013;81;21166;-76
2020/12/04 08:27:51;;;;;;;141.77;55.50;;;;;;;2.84;84.42;98828.77;1757159;81;21261;-76
2020/12/04 08:30:21;;;;;;;179.38;64.45;;;;;;;2.89;84.42;98827.78;1757090;81;21167;-76
2020/12/04 08:32:56;;;;;;;152.30;56.37;;;;;;;2.93;84.39;98829.12;1757213;81;21544;-77
2020/12/04 08:35:27;;;;;;;87.57;37.45;;;;;;;2.93;84.36;98832.58;1756442;81;21159;-77
2020/12/04 08:37:53;;;;;;;78.07;35.38;;;;;;;2.92;84.31;98848.55;1756345;81;21134;-77
2020/12/04 08:40:27;;;;;;;85.65;41.18;;;;;;;2.94;84.30;98842.14;1757132;81;22059;-76
2020/12/04 08:42:54;;;;;;;123.45;53.50;;;;;;;2.94;84.30;98825.02;1755608;81;21592;-77
2020/12/04 08:45:27;;;;;;;86.17;39.15;;;;;;;2.94;84.25;98811.86;1757068;80;21853;-76
2020/12/04 08:47:54;;;;;;;63.78;32.80;;;;;;;2.94;84.20;98830.28;1757112;81;21163;-76
2020/12/04 08:50:23;;;;;;;60.33;30.57;;;;;;;2.99;84.17;98833.25;1756919;81;21186;-76
2020/12/04 08:52:53;;;;;;;60.70;29.23;;;;;;;3.06;84.14;98847.94;1757393;81;21192;-77
2020/12/04 08:55:26;;;;;;;62.78;29.48;;;;;;;3.14;84.13;98850.57;1757028;81;21115;-77
2020/12/04 08:57:55;;;;;;;74.95;35.30;;;;;;;3.23;84.10;98846.98;1761920;80;21595;-77
2020/12/04 09:00:33;;;;;;;103.38;43.35;;;;;;;3.37;83.95;98853.44;1762973;81;21773;-77
2020/12/04 09:03:00;;;;;;;82.97;37.67;;;;;;;3.37;83.95;98853.44;1762660;81;21162;-77
2020/12/04 09:05:26;;;;;;;87.05;41.00;;;;;;;3.43;83.99;98852.77;1762818;81;22066;-77
2020/12/04 09:07:52;;;;;;;107.58;48.45;;;;;;;3.44;83.97;98851.31;1762089;81;21576;-77
2020/12/04 09:10:19;;;;;;;76.57;39.05;;;;;;;3.49;83.93;98850.31;1762239;80;21195;-77
2020/12/04 09:12:47;;;;;;;71.15;32.50;;;;;;;3.55;83.90;98849.34;1762119;81;21095;-77
2020/12/04 09:15:16;;;;;;;205.12;105.80;;;;;;;3.61;83.86;98847.36;1762348;80;21139;-77
2020/12/04 09:17:43;;;;;;;82.80;38.70;;;;;;;3.68;83.83;98849.19;1762126;80;21258;-77
2020/12/04 09:20:10;;;;;;;65.57;34.60;;;;;;;3.75;83.75;98844.07;1762063;81;21139;-77
2020/12/04 09:22:37;;;;;;;69.75;38.50;;;;;;;3.82;83.70;98839.79;1762257;81;21064;-77
2020/12/04 09:25:06;;;;;;;69.20;33.02;;;;;;;3.89;83.65;98833.69;1762000;81;21143;-77
2020/12/04 09:27:32;;;;;;;57.80;32.30;;;;;;;3.96;83.62;98831.21;1762255;81;21179;-77
2020/12/04 09:29:59;;;;;;;72.12;40.92;;;;;;;4.04;83.53;98835.16;1762156;81;21204;-77
2020/12/04 09:32:25;;;;;;;92.85;41.90;;;;;;;4.10;83.45;98833.17;1762095;81;21607;-77
2020/12/04 09:34:52;;;;;;;62.33;31.35;;;;;;;4.14;83.38;98829.21;1762136;81;21762;-77
2020/12/04 09:37:29;;;;;;;128.20;53.73;;;;;;;4.19;83.30;98832.16;1761912;81;21111;-77
2020/12/04 09:40:08;;;;;;;79.60;35.85;;;;;;;4.23;83.25;98825.55;1762254;81;21071;-77
2020/12/04 09:42:35;;;;;;;63.28;33.95;;;;;;;4.28;83.20;98825.89;1761671;81;21584;-77
2020/12/04 09:45:01;;;;;;;63.35;34.27;;;;;;;4.34;83.13;98822.56;1762174;81;21564;-77
2020/12/04 09:47:30;;;;;;;81.53;40.43;;;;;;;4.36;83.02;98819.25;1762111;81;21143;-77
2020/12/04 09:49:56;;;;;;;68.25;35.48;;;;;;;4.39;82.94;98821.58;1761933;81;21135;-77
2020/12/04 09:52:22;;;;;;;69.20;36.28;;;;;;;4.42;82.86;98809.36;1762228;81;21556;-77
2020/12/04 09:54:49;;;;;;;89.00;43.85;;;;;;;4.44;82.76;98811.31;1762187;81;21583;-77
2020/12/04 09:57:16;;;;;;;75.15;35.92;;;;;;;4.46;82.65;98810.66;1759040;81;21159;-77
2020/12/04 09:59:43;;;;;;;59.95;31.75;;;;;;;4.49;82.60;98791.02;1756301;80;21186;-77
2020/12/04 10:02:09;;;;;;;62.30;32.67;;;;;;;4.52;82.48;98803.38;1756550;80;21150;-77
2020/12/04 10:04:36;;;;;;;64.75;35.13;;;;;;;4.57;82.38;98796.77;1756435;81;21107;-77
2020/12/04 10:07:03;;;;;;;81.47;40.35;;;;;;;4.61;82.30;98792.27;1756560;81;21271;-76
2020/12/04 10:09:29;;;;;;;63.78;34.78;;;;;;;4.65;82.19;98792.75;1756527;81;21146;-76
2020/12/04 10:11:56;;;;;;;66.95;33.78;;;;;;;4.69;82.10;98787.46;1756542;81;21112;-77
2020/12/04 10:14:24;;;;;;;57.78;30.82;;;;;;;4.74;82.01;98791.74;1756548;81;21167;-76
2020/12/04 10:16:51;;;;;;;66.33;33.30;;;;;;;4.77;81.92;98792.22;1756288;80;21155;-77
2020/12/04 10:19:17;;;;;;;50.08;27.35;;;;;;;4.84;81.84;98800.27;1756439;80;21238;-77
2020/12/04 10:21:45;;;;;;;53.15;29.50;;;;;;;4.89;81.78;98803.23;1756401;81;21163;-77
2020/12/04 10:24:13;;;;;;;55.60;30.40;;;;;;;4.93;81.67;98792.62;1756308;80;21202;-76
2020/12/04 10:26:41;;;;;;;59.85;32.38;;;;;;;4.96;81.60;98797.05;1756449;81;21155;-76
2020/12/04 10:29:08;;;;;;;58.35;32.28;;;;;;;5.01;81.54;98793.91;1756430;81;21116;-76
2020/12/04 10:31:34;;;;;;;48.92;26.12;;;;;;;5.07;81.45;98790.55;1756537;81;21572;-76
2020/12/04 10:34:01;;;;;;;68.80;34.08;;;;;;;5.11;81.29;98795.82;1756087;81;21597;-76
2020/12/04 10:36:27;;;;;;;48.20;26.75;;;;;;;5.17;81.21;98784.58;1756387;81;21492;-76
2020/12/04 10:38:54;;;;;;;53.65;29.27;;;;;;;5.22;81.14;98778.25;1756336;81;21119;-76
2020/12/04 10:41:21;;;;;;;74.77;44.10;;;;;;;5.27;81.02;98785.16;1756368;81;21191;-76
2020/12/04 10:43:48;;;;;;;194.93;85.35;;;;;;;5.31;80.87;98781.67;1756447;81;21233;-76
2020/12/04 10:46:16;;;;;;;280.35;130.72;;;;;;;5.35;80.77;98783.77;1756227;81;21143;-76
2020/12/04 10:48:43;;;;;;;320.67;156.30;;;;;;;5.43;80.72;98781.07;1756376;81;21103;-76
2020/12/04 10:51:10;;;;;;;113.03;59.53;;;;;;;5.47;80.58;98782.36;1756074;81;21635;-77
2020/12/04 10:53:36;;;;;;;50.55;28.38;;;;;;;5.52;80.52;98781.31;1756568;81;21092;-77
2020/12/04 10:56:02;;;;;;;45.30;25.20;;;;;;;5.57;80.45;98773.35;1756063;81;21267;-77
2020/12/04 10:58:28;;;;;;;38.83;21.77;;;;;;;5.62;80.36;98771.02;1756324;81;21151;-77
2020/12/04 11:00:55;;;;;;;44.05;23.73;;;;;;;5.64;80.26;98779.08;1756363;81;21112;-77
2020/12/04 11:05:56;;;;;;;44.88;26.40;;;;;;;5.73;80.09;98774.56;1756497;81;21100;-77
2020/12/04 11:08:23;;;;;;;84.30;35.70;;;;;;;5.74;79.88;98778.83;1756368;81;21162;-77
2020/12/04 11:10:49;;;;;;;77.05;35.08;;;;;;;5.74;79.81;98778.33;1756542;81;21183;-77
2020/12/04 11:13:16;;;;;;;76.97;36.08;;;;;;;5.73;79.74;98770.59;1756304;81;21127;-77
2020/12/04 11:15:42;;;;;;;143.43;55.70;;;;;;;5.70;79.68;98764.34;1756392;81;21194;-77
2020/12/04 11:18:08;;;;;;;90.97;39.92;;;;;;;5.68;79.52;98764.50;1756217;80;21127;-77
2020/12/04 11:20:34;;;;;;;74.20;34.67;;;;;;;5.66;79.43;98774.95;1756164;81;21197;-77
2020/12/04 11:23:01;;;;;;;64.00;31.87;;;;;;;5.67;79.38;98768.64;1756438;81;21171;-77
2020/12/04 11:25:27;;;;;;;96.95;48.20;;;;;;;5.70;79.34;98773.59;1756350;80;21565;-77
2020/12/04 11:27:53;;;;;;;46.53;27.30;;;;;;;5.74;79.29;98775.69;1756432;81;21576;-77
2020/12/04 11:30:21;;;;;;;76.90;41.77;;;;;;;5.79;79.26;98756.64;1756298;81;21159;-77